»·PEaware :: FJS1399 KAWO-KPDX

FJS1399 :: KAWO-KPDX

FLIGHT INFORMATION

Flight Status: Arrived
Operator: Unknown
More flights by this operator :: More flights under this callsign
Pilot: David C. (16084)
Aircraft: BOMBARDIER BD-100 CHALLENGER 300
(CL30)
More flights by this aircraft type
Origin: KAWO Arlington Mun
United States
Destination: KPDX Portland Intl
United States
More flights between these airports :: More routes between these airports
Route: +ALINGTON2 PAE V23 SEA BUWZO KRATR2
File this flight plan on PilotEdge
Remarks:
Altitude:
(Current/Filed)
22,000ft
Speed:
(Current/Filed)
422kts
Departed: 10-Aug-18 10:54 AM
Arrived: 10-Aug-18 11:32 AM
Distance/Time
Traveled:
155nm/0:37
Distance/Time
To Go:
Arrived

Flight Plot

Page will automatically refresh every two minutes.

Flight plan parsing failed; only flown route is shown


Map Options




Map Legend


Flown Route
Filed Route
Departure Airport
Arrival Airport
Navaid (VOR, NDB)
Fix

Horizontal Profiles

Position Reports

Time Latitude Longitude Heading Altitude Ground
Speed
10-Aug-18 10:30 48.160064 -122.152730 270 148ft 0kts
10-Aug-18 10:31 48.160064 -122.152730 270 148ft 0kts
10-Aug-18 10:32 48.160064 -122.152730 270 148ft 0kts
10-Aug-18 10:33 48.160064 -122.152730 270 148ft 0kts
10-Aug-18 10:34 48.160064 -122.152730 270 148ft 0kts
10-Aug-18 10:35 48.160064 -122.152730 270 148ft 0kts
10-Aug-18 10:36 48.160064 -122.152730 270 148ft 0kts
10-Aug-18 10:37 48.160064 -122.152730 270 148ft 0kts
10-Aug-18 10:38 48.160064 -122.152730 270 148ft 0kts
10-Aug-18 10:39 48.160064 -122.152730 270 148ft 0kts
10-Aug-18 10:40 48.160064 -122.152730 270 148ft 0kts
10-Aug-18 10:41 48.160064 -122.152730 270 148ft 0kts
10-Aug-18 10:42 48.160064 -122.152730 270 148ft 0kts
10-Aug-18 10:43 48.160064 -122.152730 270 148ft 0kts
10-Aug-18 10:44 48.160064 -122.152730 270 148ft 0kts
10-Aug-18 10:45 48.160064 -122.152730 270 148ft 0kts
10-Aug-18 10:46 48.160064 -122.152730 270 148ft 0kts
10-Aug-18 10:47 48.160064 -122.152730 270 148ft 0kts
10-Aug-18 10:48 48.160064 -122.152730 270 148ft 0kts
10-Aug-18 10:49 48.161215 -122.154316 359 148ft 14kts
10-Aug-18 10:50 48.166741 -122.154408 358 148ft 25kts
10-Aug-18 10:51 48.169463 -122.155178 225 148ft 0kts
10-Aug-18 10:52 48.169463 -122.155178 225 148ft 0kts
10-Aug-18 10:53 48.169463 -122.155178 225 148ft 0kts
10-Aug-18 10:54 48.169463 -122.155178 225 148ft 0kts
10-Aug-18 10:55 48.165402 -122.156385 179 148ft 98kts
10-Aug-18 10:56 48.124359 -122.182808 262 3142ft 212kts
10-Aug-18 10:57 48.102999 -122.255151 191 4022ft 208kts
10-Aug-18 10:58 48.083770 -122.330739 265 4004ft 217kts
10-Aug-18 10:59 48.081302 -122.421037 265 5996ft 226kts
10-Aug-18 11:00 48.046496 -122.466516 165 7036ft 211kts
10-Aug-18 11:01 47.988450 -122.448216 170 9442ft 217kts
10-Aug-18 11:02 47.926323 -122.432434 171 12459ft 261kts
10-Aug-18 11:03 47.851526 -122.413531 171 15976ft 282kts
10-Aug-18 11:04 47.773459 -122.393878 172 19496ft 293kts
10-Aug-18 11:05 47.690785 -122.373168 172 22038ft 338kts
10-Aug-18 11:06 47.585321 -122.346812 171 22028ft 403kts
10-Aug-18 11:07 47.475573 -122.319469 171 22029ft 401kts
10-Aug-18 11:08 47.364880 -122.310395 180 22035ft 400kts
10-Aug-18 11:09 47.254135 -122.309711 180 22037ft 400kts
10-Aug-18 11:10 47.142990 -122.309547 180 22036ft 400kts
10-Aug-18 11:11 47.032294 -122.309509 180 22035ft 400kts
10-Aug-18 11:12 46.920979 -122.309480 181 22038ft 401kts
10-Aug-18 11:13 46.809879 -122.309483 181 22047ft 402kts
10-Aug-18 11:14 46.698073 -122.309487 181 22046ft 402kts
10-Aug-18 11:15 46.589978 -122.309482 181 20819ft 379kts
10-Aug-18 11:16 46.487139 -122.309485 181 18944ft 362kts
10-Aug-18 11:17 46.389628 -122.309486 181 17077ft 347kts
10-Aug-18 11:18 46.294535 -122.309486 181 15270ft 339kts
10-Aug-18 11:19 46.205945 -122.340520 199 13495ft 331kts
10-Aug-18 11:20 46.120831 -122.386193 200 11772ft 324kts
10-Aug-18 11:21 46.038495 -122.430515 201 10114ft 302kts
10-Aug-18 11:22 45.963903 -122.470582 201 8617ft 273kts
10-Aug-18 11:23 45.892587 -122.472143 171 7191ft 260kts
10-Aug-18 11:24 45.822347 -122.452163 170 6007ft 256kts
10-Aug-18 11:25 45.752758 -122.431039 169 6000ft 256kts
10-Aug-18 11:26 45.684577 -122.409898 169 5987ft 233kts
10-Aug-18 11:27 45.628008 -122.384251 154 5987ft 223kts
10-Aug-18 11:28 45.572177 -122.359549 204 4075ft 212kts
10-Aug-18 11:29 45.532667 -122.411352 253 2167ft 200kts
10-Aug-18 11:30 45.547074 -122.475167 302 1544ft 152kts
10-Aug-18 11:31 45.566186 -122.522204 300 806ft 135kts
10-Aug-18 11:32 45.583671 -122.567167 298 106ft 125kts
10-Aug-18 11:33 45.592073 -122.590662 273 36ft 13kts
10-Aug-18 11:34 45.591184 -122.589524 120 36ft 13kts
10-Aug-18 11:35 45.588467 -122.582839 142 36ft 15kts
10-Aug-18 11:36 45.587445 -122.584140 296 36ft 0kts

Navigation Log

Ident Type
Flight plan parsing failed, navigation log unavailable